Time;durP1;ratioP1;P1;durP2;ratioP2;P2;SDS_P1;SDS_P2;PMS_P1;PMS_P2;Temp;Humidity;BMP_temperature;BMP_pressure;BME280_temperature;BME280_humidity;BME280_pressure;Samples;Min_cycle;Max_cycle;Signal;HPM_P1;HPM_P2
2022/03/23 00:01:55;;;;;;;;;14.50;14.25;;;;;-146.25;100.00;57879.81;5059139;28;45378;-71
2022/03/23 00:04:21;;;;;;;;;16.00;14.75;;;;;-146.25;100.00;57879.81;5058478;28;45528;-70
2022/03/23 00:06:47;;;;;;;;;15.50;13.00;;;;;-146.25;100.00;57879.81;5059081;28;45383;-70
2022/03/23 00:09:14;;;;;;;;;14.00;14.00;;;;;-146.25;100.00;57879.81;5058834;28;45561;-71
2022/03/23 00:11:41;;;;;;;;;13.00;12.75;;;;;-146.25;100.00;57879.81;5059382;28;45440;-70
2022/03/23 00:14:09;;;;;;;;;15.25;14.25;;;;;-146.25;100.00;57879.81;5058631;28;45640;-70
2022/03/23 00:16:39;;;;;;;;;13.00;12.00;;;;;-146.25;100.00;57879.81;5057763;28;45330;-71
2022/03/23 00:19:06;;;;;;;;;13.75;13.50;;;;;-146.25;100.00;57879.81;5058475;28;45390;-70
2022/03/23 00:21:32;;;;;;;;;18.00;16.75;;;;;-146.25;100.00;57879.81;5058540;28;45509;-71
2022/03/23 00:23:57;;;;;;;;;15.75;14.00;;;;;-146.25;100.00;57879.81;5058121;28;45539;-71
2022/03/23 00:26:23;;;;;;;;;16.75;14.00;;;;;-146.25;100.00;57879.81;5059093;28;45401;-71
2022/03/23 00:28:48;;;;;;;;;13.50;13.00;;;;;-146.25;100.00;57879.81;5058751;28;46103;-70
2022/03/23 00:31:14;;;;;;;;;14.75;13.25;;;;;-146.25;100.00;57879.81;5059196;28;45347;-70
2022/03/23 00:33:40;;;;;;;;;14.00;12.00;;;;;-146.25;100.00;57879.81;5058355;28;46287;-70
2022/03/23 00:36:07;;;;;;;;;12.75;12.75;;;;;-146.25;100.00;57879.81;5058527;28;45223;-70
2022/03/23 00:38:33;;;;;;;;;14.25;14.25;;;;;-146.25;100.00;57879.81;5074617;28;45248;-71
2022/03/23 00:40:58;;;;;;;;;13.00;12.50;;;;;-146.25;100.00;57879.81;5058771;28;45549;-71
2022/03/23 00:43:24;;;;;;;;;18.00;16.00;;;;;-146.25;100.00;57879.81;5057923;28;45373;-70
2022/03/23 00:45:50;;;;;;;;;13.25;12.75;;;;;-146.25;100.00;57879.81;5057418;28;45574;-70
2022/03/23 00:48:15;;;;;;;;;13.50;13.00;;;;;-146.25;100.00;57879.81;5057937;28;45457;-70
2022/03/23 00:50:42;;;;;;;;;14.25;13.25;;;;;-146.25;100.00;57879.81;5057867;28;45500;-71
2022/03/23 00:53:07;;;;;;;;;15.25;13.50;;;;;-146.25;100.00;57879.81;5056321;28;46665;-70
2022/03/23 00:55:33;;;;;;;;;14.25;13.75;;;;;-146.25;100.00;57879.81;5057404;28;45487;-70
2022/03/23 00:57:58;;;;;;;;;11.50;11.50;;;;;-146.25;100.00;57879.81;5058662;28;45412;-70
2022/03/23 01:00:24;;;;;;;;;14.50;14.00;;;;;-146.25;100.00;57879.81;5057273;28;45465;-71
2022/03/23 01:02:50;;;;;;;;;15.00;14.00;;;;;-146.25;100.00;57879.81;5057743;28;45465;-70
2022/03/23 01:05:16;;;;;;;;;13.00;12.00;;;;;-146.25;100.00;57879.81;5057807;28;45441;-70
2022/03/23 01:07:43;;;;;;;;;13.00;13.00;;;;;-146.25;100.00;57879.81;5057205;28;45386;-70
2022/03/23 01:10:12;;;;;;;;;13.75;13.25;;;;;-146.25;100.00;57879.81;5038201;28;45386;-71
2022/03/23 01:12:43;;;;;;;;;13.00;11.75;;;;;-146.25;100.00;57879.81;5037889;28;45598;-70
2022/03/23 01:15:11;;;;;;;;;15.75;13.75;;;;;-146.25;100.00;57879.81;5039336;28;45292;-71
2022/03/23 01:17:37;;;;;;;;;14.00;13.25;;;;;-146.25;100.00;57879.81;5058729;28;45493;-71
2022/03/23 01:20:05;;;;;;;;;15.75;13.00;;;;;-146.25;100.00;57879.81;5058757;28;45640;-70
2022/03/23 01:22:31;;;;;;;;;12.25;11.75;;;;;-146.25;100.00;57879.81;5058178;28;45418;-70
2022/03/23 01:24:56;;;;;;;;;12.00;10.75;;;;;-146.25;100.00;57879.81;5058417;28;45401;-70
2022/03/23 01:27:22;;;;;;;;;14.25;12.50;;;;;-146.25;100.00;57879.81;5056944;28;45244;-71
2022/03/23 01:29:47;;;;;;;;;12.50;11.50;;;;;-146.25;100.00;57879.81;5058637;28;45417;-70
2022/03/23 01:32:13;;;;;;;;;13.50;12.00;;;;;-146.25;100.00;57879.81;5058053;28;45659;-70
2022/03/23 01:34:39;;;;;;;;;18.75;15.50;;;;;-146.25;100.00;57879.81;5058051;28;45430;-70
2022/03/23 01:37:05;;;;;;;;;19.00;16.25;;;;;-146.25;100.00;57879.81;5056703;28;45506;-70
2022/03/23 01:39:31;;;;;;;;;13.00;11.25;;;;;-146.25;100.00;57879.81;5056898;28;45565;-70
2022/03/23 01:41:58;;;;;;;;;13.75;13.50;;;;;-146.25;100.00;57879.81;5056094;28;45485;-70
2022/03/23 01:44:25;;;;;;;;;16.50;15.00;;;;;-146.25;100.00;57879.81;5057371;28;45417;-71
2022/03/23 01:47:08;;;;;;;;;14.00;13.00;;;;;-146.25;100.00;57879.81;5057812;28;45484;-71
2022/03/23 01:49:36;;;;;;;;;13.00;12.00;;;;;-146.25;100.00;57879.81;5056974;28;45462;-70
2022/03/23 01:52:06;;;;;;;;;16.00;15.00;;;;;-146.25;100.00;57879.81;5056675;28;45455;-70
2022/03/23 01:54:32;;;;;;;;;12.25;11.25;;;;;-146.25;100.00;57879.81;5057011;28;45579;-70
2022/03/23 01:56:59;;;;;;;;;14.75;14.25;;;;;-146.25;100.00;57879.81;5057777;28;45378;-70
2022/03/23 01:59:26;;;;;;;;;12.25;12.00;;;;;-146.25;100.00;57879.81;5057039;28;45452;-70
2022/03/23 02:01:53;;;;;;;;;14.00;12.75;;;;;-146.25;100.00;57879.81;5057770;28;45520;-70
2022/03/23 02:04:19;;;;;;;;;12.00;11.50;;;;;-146.25;100.00;57879.81;5057105;28;45387;-71
2022/03/23 02:06:45;;;;;;;;;15.50;14.50;;;;;-146.25;100.00;57879.81;5057511;28;45308;-70
2022/03/23 02:09:11;;;;;;;;;13.25;13.00;;;;;-146.25;100.00;57879.81;5057130;28;45417;-70
2022/03/23 02:11:38;;;;;;;;;12.00;11.75;;;;;-146.25;100.00;57879.81;5057476;28;45246;-70
2022/03/23 02:14:04;;;;;;;;;13.00;13.00;;;;;-146.25;100.00;57879.81;5056350;28;45252;-70
2022/03/23 02:16:29;;;;;;;;;8.25;7.00;;;;;-146.25;100.00;57879.81;5055180;28;45497;-70
2022/03/23 02:18:55;;;;;;;;;13.50;12.00;;;;;-146.25;100.00;57879.81;5057001;28;46146;-70
2022/03/23 02:21:20;;;;;;;;;13.25;13.25;;;;;-146.25;100.00;57879.81;5055942;28;45396;-70
2022/03/23 02:23:46;;;;;;;;;12.50;11.75;;;;;-146.25;100.00;57879.81;5056825;28;45502;-70
2022/03/23 02:26:13;;;;;;;;;13.50;13.00;;;;;-146.25;100.00;57879.81;5056925;28;45494;-71
2022/03/23 02:28:39;;;;;;;;;11.00;10.25;;;;;-146.25;100.00;57879.81;5057576;28;45367;-70
2022/03/23 02:31:05;;;;;;;;;13.50;13.00;;;;;-146.25;100.00;57879.81;5056942;28;46289;-70
2022/03/23 02:33:31;;;;;;;;;15.00;14.75;;;;;-146.25;100.00;57879.81;5068257;28;45409;-70
2022/03/23 02:35:56;;;;;;;;;13.25;12.75;;;;;-146.25;100.00;57879.81;5044512;28;45778;-71
2022/03/23 02:38:22;;;;;;;;;14.25;13.00;;;;;-146.25;100.00;57879.81;5057062;28;45453;-70
2022/03/23 02:40:48;;;;;;;;;11.25;11.25;;;;;-146.25;100.00;57879.81;5055405;28;46453;-70
2022/03/23 02:43:14;;;;;;;;;12.25;12.00;;;;;-146.25;100.00;57879.81;5056329;28;45457;-70
2022/03/23 02:45:39;;;;;;;;;13.50;13.00;;;;;-146.25;100.00;57879.81;5056319;28;45493;-70
2022/03/23 02:48:06;;;;;;;;;12.00;12.00;;;;;-146.25;100.00;57879.81;5056678;28;45299;-70
2022/03/23 02:50:33;;;;;;;;;14.00;12.25;;;;;-146.25;100.00;57879.81;5056052;28;45562;-70
2022/03/23 03:01:54;;;;;;;;;12.50;12.50;;;;;-146.25;100.00;57879.81;5055721;28;45509;-70
2022/03/23 03:04:24;;;;;;;;;14.00;11.75;;;;;-146.25;100.00;57879.81;5037689;28;45399;-70
2022/03/23 03:06:50;;;;;;;;;14.50;14.00;;;;;-146.25;100.00;57879.81;5066199;28;45441;-70
2022/03/23 03:09:16;;;;;;;;;15.75;13.50;;;;;-146.25;100.00;57879.81;5045605;28;45584;-71
2022/03/23 03:11:43;;;;;;;;;12.75;12.75;;;;;-146.25;100.00;57879.81;5055404;28;45707;-70
2022/03/23 03:14:11;;;;;;;;;13.75;13.25;;;;;-146.25;100.00;57879.81;5054953;28;45562;-70
2022/03/23 03:16:37;;;;;;;;;10.50;9.00;;;;;-146.25;100.00;57879.81;5058059;28;45528;-71
2022/03/23 03:19:05;;;;;;;;;14.00;13.00;;;;;-146.25;100.00;57879.81;5059299;28;45437;-71
2022/03/23 03:21:32;;;;;;;;;12.25;11.50;;;;;-146.25;100.00;57879.81;5059580;28;46230;-71
2022/03/23 03:23:58;;;;;;;;;13.00;10.50;;;;;-146.25;100.00;57879.81;5059327;28;45339;-70
2022/03/23 03:26:24;;;;;;;;;12.00;12.00;;;;;-146.25;100.00;57879.81;5059243;28;45458;-70
2022/03/23 03:28:50;;;;;;;;;9.50;9.50;;;;;-146.25;100.00;57879.81;5059511;28;45323;-70
2022/03/23 03:31:16;;;;;;;;;14.00;13.75;;;;;-146.25;100.00;57879.81;5057914;28;45592;-71
2022/03/23 03:33:43;;;;;;;;;12.25;12.25;;;;;-146.25;100.00;57879.81;5057849;28;45306;-70
2022/03/23 03:36:09;;;;;;;;;13.75;13.25;;;;;-146.25;100.00;57879.81;5068567;28;45472;-70
2022/03/23 03:38:36;;;;;;;;;13.75;13.00;;;;;-146.25;100.00;57879.81;5056501;28;45478;-70
2022/03/23 03:41:03;;;;;;;;;11.75;10.25;;;;;-146.25;100.00;57879.81;5058173;28;46190;-70
2022/03/23 03:43:30;;;;;;;;;14.75;14.75;;;;;-146.25;100.00;57879.81;5057726;28;45769;-70
2022/03/23 03:45:56;;;;;;;;;12.75;12.75;;;;;-146.25;100.00;57879.81;5058384;28;45873;-70
2022/03/23 03:48:21;;;;;;;;;11.75;11.00;;;;;-146.25;100.00;57879.81;5057934;28;45523;-70
2022/03/23 03:50:47;;;;;;;;;11.00;11.00;;;;;-146.25;100.00;57879.81;5057659;28;45571;-69
2022/03/23 03:53:13;;;;;;;;;13.00;11.75;;;;;-146.25;100.00;57879.81;5057981;28;45421;-70
2022/03/23 03:55:40;;;;;;;;;13.25;11.50;;;;;-146.25;100.00;57879.81;5057832;28;45359;-70
2022/03/23 03:58:08;;;;;;;;;11.00;11.00;;;;;-146.25;100.00;57879.81;5058118;28;45529;-69
2022/03/23 04:00:34;;;;;;;;;14.00;12.75;;;;;-146.25;100.00;57879.81;5055638;28;45787;-70
2022/03/23 04:03:00;;;;;;;;;12.25;11.50;;;;;-146.25;100.00;57879.81;5057853;28;45382;-70
2022/03/23 04:05:28;;;;;;;;;10.75;10.00;;;;;-146.25;100.00;57879.81;5058050;28;45500;-70
2022/03/23 04:07:57;;;;;;;;;11.50;11.00;;;;;-146.25;100.00;57879.81;5058032;28;45446;-70
2022/03/23 04:10:24;;;;;;;;;11.75;11.00;;;;;-146.25;100.00;57879.81;5057809;28;46094;-70
2022/03/23 04:12:50;;;;;;;;;11.25;10.50;;;;;-146.25;100.00;57879.81;5056794;28;45330;-70
2022/03/23 04:15:16;;;;;;;;;10.00;10.00;;;;;-146.25;100.00;57879.81;5057926;28;45503;-70
2022/03/23 04:17:42;;;;;;;;;14.50;12.00;;;;;-146.25;100.00;57879.81;5056712;28;45391;-70
2022/03/23 04:20:11;;;;;;;;;8.50;6.75;;;;;-146.25;100.00;57879.81;5057348;28;46167;-71
2022/03/23 04:22:38;;;;;;;;;7.25;7.25;;;;;-146.25;100.00;57879.81;5057686;28;45651;-70
2022/03/23 04:25:09;;;;;;;;;11.00;10.25;;;;;-146.25;100.00;57879.81;5057723;28;45491;-70
2022/03/23 04:27:43;;;;;;;;;7.25;7.25;;;;;-146.25;100.00;57879.81;5055335;28;45547;-70
2022/03/23 04:30:09;;;;;;;;;10.75;9.50;;;;;-146.25;100.00;57879.81;5054443;28;45610;-70
2022/03/23 04:32:35;;;;;;;;;11.25;10.50;;;;;-146.25;100.00;57879.81;5057934;28;45441;-70
2022/03/23 04:35:00;;;;;;;;;10.25;10.00;;;;;-146.25;100.00;57879.81;5058588;28;45619;-70
2022/03/23 04:37:26;;;;;;;;;10.00;8.00;;;;;-146.25;100.00;57879.81;5058256;28;45616;-70
2022/03/23 04:39:51;;;;;;;;;10.75;10.00;;;;;-146.25;100.00;57879.81;5058176;28;46278;-70
2022/03/23 04:42:17;;;;;;;;;10.00;9.00;;;;;-146.25;100.00;57879.81;5057270;28;45387;-70
2022/03/23 04:44:42;;;;;;;;;14.25;12.75;;;;;-146.25;100.00;57879.81;5057678;28;45595;-71
2022/03/23 04:47:08;;;;;;;;;12.00;11.00;;;;;-146.25;100.00;57879.81;5058111;28;45492;-70
2022/03/23 04:49:33;;;;;;;;;9.75;9.75;;;;;-146.25;100.00;57879.81;5057679;28;46503;-71
2022/03/23 04:51:59;;;;;;;;;11.50;10.50;;;;;-146.25;100.00;57879.81;5058021;28;46333;-70
2022/03/23 04:54:25;;;;;;;;;13.00;11.00;;;;;-146.25;100.00;57879.81;5058034;28;45373;-71
2022/03/23 04:56:50;;;;;;;;;12.00;10.25;;;;;-146.25;100.00;57879.81;5056836;28;45304;-70
2022/03/23 04:59:16;;;;;;;;;11.75;11.00;;;;;-146.25;100.00;57879.81;5058032;28;46605;-71
2022/03/23 05:01:42;;;;;;;;;12.50;11.50;;;;;-146.25;100.00;57879.81;5057163;28;45580;-70
2022/03/23 05:04:07;;;;;;;;;9.25;8.50;;;;;-146.25;100.00;57879.81;5056430;28;46098;-70
2022/03/23 05:06:33;;;;;;;;;15.00;12.00;;;;;-146.25;100.00;57879.81;5058311;28;45371;-70
2022/03/23 05:08:59;;;;;;;;;13.75;11.00;;;;;-146.25;100.00;57879.81;5057822;28;46412;-70
2022/03/23 05:11:24;;;;;;;;;11.00;10.25;;;;;-146.25;100.00;57879.81;5057052;28;45600;-70
2022/03/23 05:13:50;;;;;;;;;10.50;9.25;;;;;-146.25;100.00;57879.81;5058106;28;45484;-70
2022/03/23 05:16:18;;;;;;;;;11.00;11.00;;;;;-146.25;100.00;57879.81;5057946;28;45500;-70
2022/03/23 05:18:44;;;;;;;;;10.25;10.00;;;;;-146.25;100.00;57879.81;5057240;28;46181;-70
2022/03/23 05:21:09;;;;;;;;;11.75;11.00;;;;;-146.25;100.00;57879.81;5056717;28;45473;-70
2022/03/23 05:23:35;;;;;;;;;11.25;10.75;;;;;-146.25;100.00;57879.81;5089819;27;45560;-71
2022/03/23 05:26:01;;;;;;;;;9.00;9.00;;;;;-146.25;100.00;57879.81;5057927;28;45406;-70
2022/03/23 05:28:27;;;;;;;;;11.50;10.00;;;;;-146.25;100.00;57879.81;5056076;28;45379;-71
2022/03/23 05:30:53;;;;;;;;;10.75;10.25;;;;;-146.25;100.00;57879.81;5057158;28;45443;-70
2022/03/23 05:33:18;;;;;;;;;10.25;9.75;;;;;-146.25;100.00;57879.81;5057543;28;45805;-70
2022/03/23 05:35:44;;;;;;;;;7.25;7.25;;;;;-146.25;100.00;57879.81;5057420;28;45508;-70
2022/03/23 05:38:09;;;;;;;;;9.25;9.25;;;;;-146.25;100.00;57879.81;5056437;28;46173;-70
2022/03/23 05:40:35;;;;;;;;;12.25;11.50;;;;;-146.25;100.00;57879.81;5057228;28;45436;-70
2022/03/23 05:43:01;;;;;;;;;11.50;11.00;;;;;-146.25;100.00;57879.81;5057461;28;45465;-70
2022/03/23 05:45:27;;;;;;;;;8.75;8.50;;;;;-146.25;100.00;57879.81;5057656;28;45348;-70
2022/03/23 05:47:53;;;;;;;;;11.75;11.75;;;;;-146.25;100.00;57879.81;5057248;28;47165;-70
2022/03/23 05:50:20;;;;;;;;;12.00;11.00;;;;;-146.25;100.00;57879.81;5056942;28;45425;-70
2022/03/23 05:52:45;;;;;;;;;7.25;7.25;;;;;-146.25;100.00;57879.81;5056029;28;45488;-70
2022/03/23 05:55:11;;;;;;;;;11.75;10.75;;;;;-146.25;100.00;57879.81;5057406;28;45545;-70
2022/03/23 05:57:37;;;;;;;;;13.00;11.00;;;;;-146.25;100.00;57879.81;5056914;28;45462;-70
2022/03/23 06:00:08;;;;;;;;;12.00;11.00;;;;;-146.25;100.00;57879.81;5054280;28;45550;-70
2022/03/23 06:02:34;;;;;;;;;10.00;10.00;;;;;-146.25;100.00;57879.81;5053793;28;45461;-70
2022/03/23 06:04:59;;;;;;;;;11.00;9.75;;;;;-146.25;100.00;57879.81;5080132;27;45390;-70
2022/03/23 06:07:25;;;;;;;;;12.00;10.50;;;;;-146.25;100.00;57879.81;5056082;28;45420;-70
2022/03/23 06:09:51;;;;;;;;;9.00;9.00;;;;;-146.25;100.00;57879.81;5056083;28;45370;-70
2022/03/23 06:12:17;;;;;;;;;10.00;9.00;;;;;-146.25;100.00;57879.81;5055125;28;45548;-71
2022/03/23 06:14:43;;;;;;;;;10.50;10.00;;;;;-146.25;100.00;57879.81;5055561;28;45546;-70
2022/03/23 06:17:11;;;;;;;;;11.00;10.00;;;;;-146.25;100.00;57879.81;5055907;28;45401;-70
2022/03/23 06:19:37;;;;;;;;;11.00;10.75;;;;;-146.25;100.00;57879.81;5057079;28;45495;-70
2022/03/23 06:22:04;;;;;;;;;7.00;7.00;;;;;-146.25;100.00;57879.81;5057403;28;45406;-70
2022/03/23 06:24:30;;;;;;;;;10.00;10.00;;;;;-146.25;100.00;57879.81;5057471;28;45393;-70
2022/03/23 06:26:56;;;;;;;;;10.50;9.00;;;;;-146.25;100.00;57879.81;5056963;28;45579;-70
2022/03/23 06:29:21;;;;;;;;;9.75;8.25;;;;;-146.25;100.00;57879.81;5057142;28;45495;-70
2022/03/23 06:31:47;;;;;;;;;6.00;6.00;;;;;-146.25;100.00;57879.81;5056663;28;45457;-70
2022/03/23 06:34:12;;;;;;;;;11.00;10.00;;;;;-146.25;100.00;57879.81;5057611;28;45531;-71
2022/03/23 06:36:38;;;;;;;;;12.75;12.00;;;;;-146.25;100.00;57879.81;5057440;28;45481;-70
2022/03/23 06:39:05;;;;;;;;;17.50;14.75;;;;;-146.25;100.00;57879.81;5057549;28;45421;-70
2022/03/23 06:41:31;;;;;;;;;13.75;11.25;;;;;-146.25;100.00;57879.81;5057412;28;45542;-70
2022/03/23 06:43:57;;;;;;;;;14.25;13.75;;;;;-146.25;100.00;57879.81;5057502;28;45484;-70
2022/03/23 06:46:22;;;;;;;;;13.25;12.75;;;;;-146.25;100.00;57879.81;5056810;28;46207;-70
2022/03/23 06:48:48;;;;;;;;;14.00;13.75;;;;;-146.25;100.00;57879.81;5056717;28;45485;-70
2022/03/23 06:51:14;;;;;;;;;18.00;14.00;;;;;-146.25;100.00;57879.81;5054952;28;46005;-71
2022/03/23 06:53:41;;;;;;;;;24.25;21.50;;;;;-146.25;100.00;57879.81;5056296;28;45380;-70
2022/03/23 06:56:08;;;;;;;;;27.00;24.75;;;;;-146.25;100.00;57879.81;5056227;28;46451;-70
2022/03/23 06:58:33;;;;;;;;;16.25;15.00;;;;;-146.25;100.00;57879.81;5051610;28;46240;-69
2022/03/23 07:01:00;;;;;;;;;14.00;13.00;;;;;-146.25;100.00;57879.81;5055373;28;45445;-70
2022/03/23 07:03:26;;;;;;;;;12.50;12.00;;;;;-146.25;100.00;57879.81;5054546;28;45574;-70
2022/03/23 07:05:52;;;;;;;;;16.00;15.50;;;;;-146.25;100.00;57879.81;5055201;28;45447;-70
2022/03/23 07:11:04;;;;;;;;;13.00;10.25;;;;;-146.25;100.00;57879.81;5054383;28;45374;-70
2022/03/23 07:13:29;;;;;;;;;12.25;11.25;;;;;-146.25;100.00;57879.81;5055771;28;46713;-70
2022/03/23 07:15:55;;;;;;;;;11.75;11.00;;;;;-146.25;100.00;57879.81;5055639;28;45805;-70
2022/03/23 07:18:20;;;;;;;;;11.75;11.00;;;;;-146.25;100.00;57879.81;5051471;28;45481;-69
2022/03/23 07:20:46;;;;;;;;;16.75;15.50;;;;;-146.25;100.00;57879.81;5056037;28;45580;-70
2022/03/23 07:23:12;;;;;;;;;17.25;15.00;;;;;-146.25;100.00;57879.81;5055923;28;45917;-71
2022/03/23 07:25:37;;;;;;;;;10.00;9.67;;;;;-146.25;100.00;57879.81;5054527;28;45487;-71
2022/03/23 07:28:04;;;;;;;;;8.33;8.33;;;;;-146.25;100.00;57879.81;5055578;28;45573;-72
2022/03/23 07:30:33;;;;;;;;;13.33;12.00;;;;;-146.25;100.00;57879.81;5055683;28;45595;-71
2022/03/23 07:33:01;;;;;;;;;9.00;8.67;;;;;-146.25;100.00;57879.81;5053108;28;45529;-71
2022/03/23 07:35:26;;;;;;;;;8.00;8.00;;;;;-146.25;100.00;57879.81;5055433;28;46102;-72
2022/03/23 07:37:52;;;;;;;;;11.00;10.00;;;;;-146.25;100.00;57879.81;5055310;28;45715;-71
2022/03/23 07:40:18;;;;;;;;;8.33;8.33;;;;;-146.25;100.00;57879.81;5055789;28;45456;-71
2022/03/23 07:42:44;;;;;;;;;10.33;10.00;;;;;-146.25;100.00;57879.81;5056009;28;45469;-71
2022/03/23 07:45:11;;;;;;;;;7.67;7.33;;;;;-146.25;100.00;57879.81;5055006;28;45610;-71
2022/03/23 07:47:37;;;;;;;;;9.67;9.00;;;;;-146.25;100.00;57879.81;5054304;28;45452;-71
2022/03/23 07:50:03;;;;;;;;;7.00;7.00;;;;;-146.25;100.00;57879.81;5071311;28;45460;-71
2022/03/23 07:52:29;;;;;;;;;6.00;6.00;;;;;-146.25;100.00;57879.81;5055997;28;45457;-71
2022/03/23 07:54:54;;;;;;;;;11.00;10.00;;;;;-146.25;100.00;57879.81;5055857;28;45303;-71
2022/03/23 07:57:20;;;;;;;;;8.00;8.00;;;;;-146.25;100.00;57879.81;5054890;28;45275;-71
2022/03/23 07:59:46;;;;;;;;;7.00;7.00;;;;;-146.25;100.00;57879.81;5055016;28;45553;-71
2022/03/23 08:02:12;;;;;;;;;6.00;6.00;;;;;-146.25;100.00;57879.81;5057120;28;45593;-71
2022/03/23 08:04:38;;;;;;;;;7.33;7.33;;;;;-146.25;100.00;57879.81;5059063;28;46494;-71
2022/03/23 08:07:04;;;;;;;;;9.00;9.00;;;;;-146.25;100.00;57879.81;5080147;27;45601;-70
2022/03/23 08:09:30;;;;;;;;;6.00;5.67;;;;;-146.25;100.00;57879.81;5057331;28;45438;-70
2022/03/23 08:11:56;;;;;;;;;7.33;7.00;;;;;-146.25;100.00;57879.81;5058859;28;45480;-70
2022/03/23 08:14:22;;;;;;;;;6.33;6.33;;;;;-146.25;100.00;57879.81;5059027;28;45517;-70
2022/03/23 08:16:48;;;;;;;;;6.67;6.67;;;;;-146.25;100.00;57879.81;5059501;28;45605;-70
2022/03/23 08:19:13;;;;;;;;;6.00;5.67;;;;;-146.25;100.00;57879.81;5059015;28;45449;-70
2022/03/23 08:21:39;;;;;;;;;6.67;6.67;;;;;-146.25;100.00;57879.81;5059855;28;45403;-70
2022/03/23 08:24:05;;;;;;;;;7.33;7.33;;;;;-146.25;100.00;57879.81;5059370;28;46390;-70
2022/03/23 08:26:31;;;;;;;;;10.33;7.33;;;;;-146.25;100.00;57879.81;5058777;28;45355;-70
2022/03/23 08:28:56;;;;;;;;;7.00;6.67;;;;;-146.25;100.00;57879.81;5059357;28;45491;-70
2022/03/23 08:31:23;;;;;;;;;6.00;5.67;;;;;-146.25;100.00;57879.81;5059478;28;45424;-70
2022/03/23 08:33:48;;;;;;;;;6.00;6.00;;;;;-146.25;100.00;57879.81;5058968;28;46392;-70
2022/03/23 08:36:14;;;;;;;;;6.67;6.00;;;;;-146.25;100.00;57879.81;5058917;28;45453;-70
2022/03/23 08:38:40;;;;;;;;;4.00;4.00;;;;;-146.25;100.00;57879.81;5059346;28;45342;-70
2022/03/23 08:41:06;;;;;;;;;6.33;6.00;;;;;-146.25;100.00;57879.81;5059541;28;45314;-70
2022/03/23 08:43:32;;;;;;;;;4.33;4.33;;;;;-146.25;100.00;57879.81;5059055;28;45327;-70
2022/03/23 08:45:59;;;;;;;;;8.00;6.67;;;;;-146.25;100.00;57879.81;5058903;28;45529;-70
2022/03/23 08:48:24;;;;;;;;;6.33;5.67;;;;;-146.25;100.00;57879.81;5059186;28;45336;-70
2022/03/23 08:50:51;;;;;;;;;6.00;5.00;;;;;-146.25;100.00;57879.81;5058883;28;45506;-70
2022/03/23 08:53:17;;;;;;;;;6.67;6.67;;;;;-146.25;100.00;57879.81;5058953;28;46070;-70
2022/03/23 08:55:43;;;;;;;;;6.67;5.33;;;;;-146.25;100.00;57879.81;5059151;28;45528;-70
2022/03/23 08:58:09;;;;;;;;;5.33;5.33;;;;;-146.25;100.00;57879.81;5058946;28;45737;-70
2022/03/23 09:00:36;;;;;;;;;6.67;6.67;;;;;-146.25;100.00;57879.81;5059130;28;45509;-70
2022/03/23 09:03:02;;;;;;;;;15.00;13.00;;;;;-146.25;100.00;57879.81;5058599;28;46130;-70
2022/03/23 09:05:27;;;;;;;;;6.00;6.00;;;;;-146.25;100.00;57879.81;5056672;28;45655;-70
2022/03/23 09:07:53;;;;;;;;;7.67;7.67;;;;;-146.25;100.00;57879.81;5057493;28;45453;-70
2022/03/23 09:10:20;;;;;;;;;4.67;4.67;;;;;-146.25;100.00;57879.81;5057148;28;45667;-70
2022/03/23 09:12:46;;;;;;;;;6.67;5.67;;;;;-146.25;100.00;57879.81;5058156;28;45655;-70
2022/03/23 09:15:13;;;;;;;;;9.33;7.33;;;;;-146.25;100.00;57879.81;5056550;28;45624;-70
2022/03/23 09:17:39;;;;;;;;;7.00;7.00;;;;;-146.25;100.00;57879.81;5057347;28;45426;-70
2022/03/23 09:20:07;;;;;;;;;7.67;5.67;;;;;-146.25;100.00;57879.81;5048280;28;45637;-70
2022/03/23 09:22:34;;;;;;;;;5.33;5.33;;;;;-146.25;100.00;57879.81;5048724;28;46376;-70
2022/03/23 09:25:04;;;;;;;;;5.00;4.67;;;;;-146.25;100.00;57879.81;5057484;28;45469;-70
2022/03/23 09:27:33;;;;;;;;;6.00;5.33;;;;;-146.25;100.00;57879.81;5057001;28;45366;-70
2022/03/23 09:29:59;;;;;;;;;7.33;6.67;;;;;-146.25;100.00;57879.81;5057359;28;45474;-70
2022/03/23 09:32:25;;;;;;;;;5.67;5.00;;;;;-146.25;100.00;57879.81;5057536;28;45581;-71
2022/03/23 09:34:50;;;;;;;;;6.00;6.00;;;;;-146.25;100.00;57879.81;5055453;28;45347;-70
2022/03/23 09:40:00;;;;;;;;;6.00;6.00;;;;;-146.25;100.00;57879.81;5057329;28;45775;-70
2022/03/23 09:42:27;;;;;;;;;5.67;5.00;;;;;-146.25;100.00;57879.81;5055251;28;46558;-70
2022/03/23 09:44:55;;;;;;;;;7.00;7.00;;;;;-146.25;100.00;57879.81;5056688;28;45571;-70
2022/03/23 09:47:21;;;;;;;;;5.33;5.33;;;;;-146.25;100.00;57879.81;5057369;28;45363;-70
2022/03/23 09:49:47;;;;;;;;;4.00;4.00;;;;;-146.25;100.00;57879.81;5057704;28;45805;-70
2022/03/23 09:52:13;;;;;;;;;7.00;6.00;;;;;-146.25;100.00;57879.81;5089007;27;45497;-70
2022/03/23 09:54:41;;;;;;;;;6.00;5.00;;;;;-146.25;100.00;57879.81;5056951;28;46071;-70
2022/03/23 09:57:07;;;;;;;;;5.67;5.67;;;;;-146.25;100.00;57879.81;5057327;28;45588;-70
2022/03/23 09:59:33;;;;;;;;;7.67;7.67;;;;;-146.25;100.00;57879.81;5057341;28;45302;-70
2022/03/23 10:02:01;;;;;;;;;5.33;5.33;;;;;-146.25;100.00;57879.81;5056878;28;45867;-69
2022/03/23 10:04:49;;;;;;;;;6.00;6.00;;;;;-146.25;100.00;57879.81;5056791;28;45362;-70
2022/03/23 10:07:26;;;;;;;;;6.00;5.67;;;;;-146.25;100.00;57879.81;5056751;28;45303;-70
2022/03/23 10:10:19;;;;;;;;;8.00;6.67;;;;;-146.25;100.00;57879.81;5057110;28;45418;-70
2022/03/23 10:13:26;;;;;;;;;8.67;7.67;;;;;-146.25;100.00;57879.81;5056136;28;46393;-69
2022/03/23 10:16:02;;;;;;;;;8.33;7.00;;;;;-146.25;100.00;57879.81;5053563;28;45378;-70
2022/03/23 10:18:53;;;;;;;;;9.00;7.67;;;;;-146.25;100.00;57879.81;5056397;28;46327;-70
2022/03/23 10:21:27;;;;;;;;;7.00;6.67;;;;;-146.25;100.00;57879.81;5043377;28;45311;-70
2022/03/23 10:24:13;;;;;;;;;6.00;6.00;;;;;-146.25;100.00;57879.81;5056401;28;45426;-70
2022/03/23 10:26:42;;;;;;;;;7.67;7.00;;;;;-146.25;100.00;57879.81;5055873;28;45523;-69
2022/03/23 10:29:23;;;;;;;;;7.67;7.33;;;;;-146.25;100.00;57879.81;5071957;28;45552;-70
2022/03/23 10:32:08;;;;;;;;;8.33;8.00;;;;;-146.25;100.00;57879.81;5057048;28;45458;-69
2022/03/23 10:34:45;;;;;;;;;11.67;10.00;;;;;-146.25;100.00;57879.81;5055781;28;46565;-70
2022/03/23 10:37:13;;;;;;;;;8.33;8.33;;;;;-146.25;100.00;57879.81;5055968;28;45512;-69
2022/03/23 10:39:39;;;;;;;;;8.33;8.00;;;;;-146.25;100.00;57879.81;5040089;28;45476;-69
2022/03/23 10:42:13;;;;;;;;;8.00;8.00;;;;;-146.25;100.00;57879.81;5055331;28;45606;-69
2022/03/23 10:44:40;;;;;;;;;9.00;9.00;;;;;-146.25;100.00;57879.81;5055699;28;45430;-69
2022/03/23 10:47:06;;;;;;;;;9.00;8.67;;;;;-146.25;100.00;57879.81;5069303;28;45618;-69
2022/03/23 10:49:35;;;;;;;;;8.67;8.33;;;;;-146.25;100.00;57879.81;5055964;28;45547;-69
2022/03/23 10:52:13;;;;;;;;;7.00;6.33;;;;;-146.25;100.00;57879.81;5056144;28;45403;-69
2022/03/23 10:54:39;;;;;;;;;7.00;7.00;;;;;-146.25;100.00;57879.81;5054919;28;45772;-69
2022/03/23 10:57:05;;;;;;;;;6.67;5.67;;;;;-146.25;100.00;57879.81;5053962;28;45391;-70
2022/03/23 10:59:32;;;;;;;;;8.33;7.00;;;;;-146.25;100.00;57879.81;5055815;28;45387;-69
2022/03/23 11:02:10;;;;;;;;;6.33;6.00;;;;;-146.25;100.00;57879.81;5056706;28;45552;-69
2022/03/23 11:04:57;;;;;;;;;7.00;7.00;;;;;-146.25;100.00;57879.81;5055255;28;45559;-69
2022/03/23 11:07:29;;;;;;;;;8.00;7.00;;;;;-146.25;100.00;57879.81;5056117;28;45426;-69
2022/03/23 11:18:16;;;;;;;;;4.00;4.00;;;;;-146.25;100.00;57879.81;5055214;28;45264;-69
2022/03/23 11:20:54;;;;;;;;;6.67;6.67;;;;;-146.25;100.00;57879.81;5041849;28;45421;-69
2022/03/23 11:23:27;;;;;;;;;6.00;6.00;;;;;-146.25;100.00;57879.81;5056262;28;45524;-69